sensor_id;sensor_type;location;lat;lon;timestamp;P1;durP1;ratioP1;P2;durP2;ratioP2
18455;SDS011;9357;49.900;8.208;2023-06-10T00:00:13;11.27;;;8.90;;
18455;SDS011;9357;49.900;8.208;2023-06-10T00:01:47;11.43;;;9.30;;
18455;SDS011;9357;49.900;8.208;2023-06-10T00:03:22;11.90;;;9.33;;
18455;SDS011;9357;49.900;8.208;2023-06-10T00:04:56;10.20;;;9.27;;
18455;SDS011;9357;49.900;8.208;2023-06-10T00:06:28;9.67;;;8.70;;
18455;SDS011;9357;49.900;8.208;2023-06-10T00:08:08;10.10;;;9.10;;
18455;SDS011;9357;49.900;8.208;2023-06-10T00:09:41;10.50;;;9.30;;
18455;SDS011;9357;49.900;8.208;2023-06-10T00:11:14;10.47;;;9.37;;
18455;SDS011;9357;49.900;8.208;2023-06-10T00:12:46;10.27;;;9.27;;
18455;SDS011;9357;49.900;8.208;2023-06-10T00:14:19;10.00;;;9.10;;
18455;SDS011;9357;49.900;8.208;2023-06-10T00:15:51;10.27;;;9.20;;
18455;SDS011;9357;49.900;8.208;2023-06-10T00:17:24;10.20;;;9.10;;
18455;SDS011;9357;49.900;8.208;2023-06-10T00:18:56;10.87;;;9.13;;
18455;SDS011;9357;49.900;8.208;2023-06-10T00:20:31;10.20;;;9.20;;
18455;SDS011;9357;49.900;8.208;2023-06-10T00:22:10;10.20;;;9.20;;
18455;SDS011;9357;49.900;8.208;2023-06-10T00:23:44;10.60;;;9.50;;
18455;SDS011;9357;49.900;8.208;2023-06-10T00:25:16;11.00;;;9.67;;
18455;SDS011;9357;49.900;8.208;2023-06-10T00:26:49;10.33;;;9.43;;
18455;SDS011;9357;49.900;8.208;2023-06-10T00:28:22;10.17;;;9.17;;
18455;SDS011;9357;49.900;8.208;2023-06-10T00:29:53;10.93;;;9.77;;
18455;SDS011;9357;49.900;8.208;2023-06-10T00:31:26;10.43;;;9.33;;
18455;SDS011;9357;49.900;8.208;2023-06-10T00:32:59;10.83;;;9.17;;
18455;SDS011;9357;49.900;8.208;2023-06-10T00:34:31;10.00;;;9.00;;
18455;SDS011;9357;49.900;8.208;2023-06-10T00:36:04;10.17;;;9.27;;
18455;SDS011;9357;49.900;8.208;2023-06-10T00:37:37;10.67;;;9.53;;
18455;SDS011;9357;49.900;8.208;2023-06-10T00:39:11;10.13;;;9.13;;
18455;SDS011;9357;49.900;8.208;2023-06-10T00:40:44;9.70;;;8.73;;
18455;SDS011;9357;49.900;8.208;2023-06-10T00:42:16;9.93;;;9.00;;
18455;SDS011;9357;49.900;8.208;2023-06-10T00:43:49;10.50;;;9.43;;
18455;SDS011;9357;49.900;8.208;2023-06-10T00:45:20;11.50;;;10.40;;
18455;SDS011;9357;49.900;8.208;2023-06-10T00:46:53;11.10;;;9.87;;
18455;SDS011;9357;49.900;8.208;2023-06-10T00:48:27;10.70;;;9.10;;
18455;SDS011;9357;49.900;8.208;2023-06-10T00:49:59;10.17;;;9.17;;
18455;SDS011;9357;49.900;8.208;2023-06-10T00:51:32;10.30;;;9.30;;
18455;SDS011;9357;49.900;8.208;2023-06-10T00:53:05;10.47;;;9.33;;
18455;SDS011;9357;49.900;8.208;2023-06-10T00:54:41;11.07;;;9.90;;
18455;SDS011;9357;49.900;8.208;2023-06-10T00:56:14;10.57;;;9.57;;
18455;SDS011;9357;49.900;8.208;2023-06-10T00:57:47;10.00;;;9.07;;
18455;SDS011;9357;49.900;8.208;2023-06-10T00:59:19;12.90;;;9.27;;
18455;SDS011;9357;49.900;8.208;2023-06-10T01:00:52;10.13;;;9.17;;
18455;SDS011;9357;49.900;8.208;2023-06-10T01:02:24;10.80;;;9.70;;
18455;SDS011;9357;49.900;8.208;2023-06-10T01:03:57;10.07;;;9.07;;
18455;SDS011;9357;49.900;8.208;2023-06-10T01:05:30;10.37;;;9.47;;
18455;SDS011;9357;49.900;8.208;2023-06-10T01:07:05;10.00;;;8.93;;
18455;SDS011;9357;49.900;8.208;2023-06-10T01:08:46;10.63;;;9.20;;
18455;SDS011;9357;49.900;8.208;2023-06-10T01:10:35;9.93;;;9.00;;
18455;SDS011;9357;49.900;8.208;2023-06-10T01:12:16;10.53;;;9.10;;
18455;SDS011;9357;49.900;8.208;2023-06-10T01:13:52;10.73;;;9.67;;
18455;SDS011;9357;49.900;8.208;2023-06-10T01:15:28;10.67;;;9.67;;
18455;SDS011;9357;49.900;8.208;2023-06-10T01:17:02;10.07;;;9.17;;
18455;SDS011;9357;49.900;8.208;2023-06-10T01:18:34;10.23;;;9.20;;
18455;SDS011;9357;49.900;8.208;2023-06-10T01:20:07;11.23;;;9.53;;
18455;SDS011;9357;49.900;8.208;2023-06-10T01:21:44;12.40;;;9.47;;
18455;SDS011;9357;49.900;8.208;2023-06-10T01:23:20;10.17;;;9.17;;
18455;SDS011;9357;49.900;8.208;2023-06-10T01:24:52;11.27;;;10.17;;
18455;SDS011;9357;49.900;8.208;2023-06-10T01:26:30;10.33;;;9.33;;
18455;SDS011;9357;49.900;8.208;2023-06-10T01:28:07;10.67;;;9.27;;
18455;SDS011;9357;49.900;8.208;2023-06-10T01:29:45;9.90;;;8.90;;
18455;SDS011;9357;49.900;8.208;2023-06-10T01:31:28;11.87;;;9.20;;
18455;SDS011;9357;49.900;8.208;2023-06-10T01:33:07;11.30;;;9.50;;
18455;SDS011;9357;49.900;8.208;2023-06-10T01:34:43;11.20;;;9.50;;
18455;SDS011;9357;49.900;8.208;2023-06-10T01:36:17;10.47;;;9.37;;
18455;SDS011;9357;49.900;8.208;2023-06-10T01:37:53;11.20;;;10.10;;
18455;SDS011;9357;49.900;8.208;2023-06-10T01:39:29;10.40;;;9.40;;
18455;SDS011;9357;49.900;8.208;2023-06-10T01:41:03;10.30;;;9.33;;
18455;SDS011;9357;49.900;8.208;2023-06-10T01:42:37;10.47;;;9.37;;
18455;SDS011;9357;49.900;8.208;2023-06-10T01:44:09;10.17;;;9.13;;
18455;SDS011;9357;49.900;8.208;2023-06-10T01:45:42;10.50;;;9.43;;
18455;SDS011;9357;49.900;8.208;2023-06-10T01:47:13;10.37;;;9.37;;
18455;SDS011;9357;49.900;8.208;2023-06-10T01:48:46;10.33;;;9.33;;
18455;SDS011;9357;49.900;8.208;2023-06-10T01:50:19;10.87;;;9.77;;
18455;SDS011;9357;49.900;8.208;2023-06-10T01:51:52;9.87;;;8.87;;
18455;SDS011;9357;49.900;8.208;2023-06-10T01:53:26;11.80;;;9.40;;
18455;SDS011;9357;49.900;8.208;2023-06-10T01:54:59;10.43;;;9.50;;
18455;SDS011;9357;49.900;8.208;2023-06-10T01:56:31;10.90;;;9.80;;
18455;SDS011;9357;49.900;8.208;2023-06-10T01:58:04;11.33;;;8.87;;
18455;SDS011;9357;49.900;8.208;2023-06-10T01:59:36;12.27;;;9.57;;
18455;SDS011;9357;49.900;8.208;2023-06-10T02:01:10;10.87;;;9.87;;
18455;SDS011;9357;49.900;8.208;2023-06-10T02:02:42;10.87;;;9.67;;
18455;SDS011;9357;49.900;8.208;2023-06-10T02:04:15;10.47;;;9.47;;
18455;SDS011;9357;49.900;8.208;2023-06-10T02:05:49;11.70;;;9.40;;
18455;SDS011;9357;49.900;8.208;2023-06-10T02:07:22;9.63;;;8.63;;
18455;SDS011;9357;49.900;8.208;2023-06-10T02:08:56;10.07;;;9.03;;
18455;SDS011;9357;49.900;8.208;2023-06-10T02:10:28;10.50;;;9.50;;
18455;SDS011;9357;49.900;8.208;2023-06-10T02:12:01;11.17;;;9.30;;
18455;SDS011;9357;49.900;8.208;2023-06-10T02:13:34;9.87;;;8.87;;
18455;SDS011;9357;49.900;8.208;2023-06-10T02:15:06;10.63;;;9.53;;
18455;SDS011;9357;49.900;8.208;2023-06-10T02:16:40;10.40;;;9.50;;
18455;SDS011;9357;49.900;8.208;2023-06-10T02:18:12;10.63;;;9.63;;
18455;SDS011;9357;49.900;8.208;2023-06-10T02:19:44;11.33;;;9.40;;
18455;SDS011;9357;49.900;8.208;2023-06-10T02:21:23;10.30;;;9.40;;
18455;SDS011;9357;49.900;8.208;2023-06-10T02:22:56;10.60;;;9.43;;
18455;SDS011;9357;49.900;8.208;2023-06-10T02:24:31;10.53;;;9.43;;
18455;SDS011;9357;49.900;8.208;2023-06-10T02:26:03;11.60;;;9.53;;
18455;SDS011;9357;49.900;8.208;2023-06-10T02:27:36;10.03;;;8.83;;
18455;SDS011;9357;49.900;8.208;2023-06-10T02:29:08;10.93;;;8.97;;
18455;SDS011;9357;49.900;8.208;2023-06-10T02:30:42;10.67;;;9.57;;
18455;SDS011;9357;49.900;8.208;2023-06-10T02:32:15;10.43;;;9.40;;
18455;SDS011;9357;49.900;8.208;2023-06-10T02:33:47;10.53;;;8.87;;
18455;SDS011;9357;49.900;8.208;2023-06-10T02:35:20;10.07;;;9.17;;
18455;SDS011;9357;49.900;8.208;2023-06-10T02:36:53;10.03;;;8.73;;
18455;SDS011;9357;49.900;8.208;2023-06-10T02:38:26;12.00;;;9.67;;
18455;SDS011;9357;49.900;8.208;2023-06-10T02:40:01;10.13;;;9.20;;
18455;SDS011;9357;49.900;8.208;2023-06-10T02:41:33;10.23;;;9.23;;
18455;SDS011;9357;49.900;8.208;2023-06-10T02:43:05;10.17;;;9.27;;
18455;SDS011;9357;49.900;8.208;2023-06-10T02:44:38;10.07;;;8.97;;
18455;SDS011;9357;49.900;8.208;2023-06-10T02:46:11;12.60;;;8.67;;
18455;SDS011;9357;49.900;8.208;2023-06-10T02:47:44;10.63;;;9.00;;
18455;SDS011;9357;49.900;8.208;2023-06-10T02:49:16;12.50;;;9.40;;
18455;SDS011;9357;49.900;8.208;2023-06-10T02:50:49;10.13;;;9.00;;
18455;SDS011;9357;49.900;8.208;2023-06-10T02:52:21;11.47;;;8.53;;
18455;SDS011;9357;49.900;8.208;2023-06-10T02:53:54;9.60;;;8.63;;
18455;SDS011;9357;49.900;8.208;2023-06-10T02:55:28;10.07;;;9.03;;
18455;SDS011;9357;49.900;8.208;2023-06-10T02:57:00;10.13;;;9.17;;
18455;SDS011;9357;49.900;8.208;2023-06-10T02:58:33;11.50;;;8.30;;
18455;SDS011;9357;49.900;8.208;2023-06-10T03:00:07;9.30;;;8.40;;
18455;SDS011;9357;49.900;8.208;2023-06-10T03:01:42;10.17;;;8.93;;
18455;SDS011;9357;49.900;8.208;2023-06-10T03:03:15;11.23;;;8.87;;
18455;SDS011;9357;49.900;8.208;2023-06-10T03:04:47;10.83;;;8.83;;
18455;SDS011;9357;49.900;8.208;2023-06-10T03:06:21;9.77;;;8.77;;
18455;SDS011;9357;49.900;8.208;2023-06-10T03:07:55;9.20;;;8.37;;
18455;SDS011;9357;49.900;8.208;2023-06-10T03:09:28;10.23;;;9.00;;
18455;SDS011;9357;49.900;8.208;2023-06-10T03:11:02;9.40;;;8.47;;
18455;SDS011;9357;49.900;8.208;2023-06-10T03:12:35;9.50;;;8.60;;
18455;SDS011;9357;49.900;8.208;2023-06-10T03:14:07;10.67;;;9.40;;
18455;SDS011;9357;49.900;8.208;2023-06-10T03:15:40;8.80;;;7.97;;
18455;SDS011;9357;49.900;8.208;2023-06-10T03:17:12;9.33;;;8.37;;
18455;SDS011;9357;49.900;8.208;2023-06-10T03:18:45;8.87;;;7.97;;
18455;SDS011;9357;49.900;8.208;2023-06-10T03:20:17;10.10;;;8.40;;
18455;SDS011;9357;49.900;8.208;2023-06-10T03:21:57;10.93;;;8.53;;
18455;SDS011;9357;49.900;8.208;2023-06-10T03:23:38;9.00;;;8.20;;
18455;SDS011;9357;49.900;8.208;2023-06-10T03:25:11;9.80;;;8.80;;
18455;SDS011;9357;49.900;8.208;2023-06-10T03:26:46;9.70;;;8.43;;
18455;SDS011;9357;49.900;8.208;2023-06-10T03:28:19;9.20;;;8.27;;
18455;SDS011;9357;49.900;8.208;2023-06-10T03:29:52;8.70;;;7.80;;
18455;SDS011;9357;49.900;8.208;2023-06-10T03:31:25;9.07;;;8.17;;
18455;SDS011;9357;49.900;8.208;2023-06-10T03:32:57;9.40;;;8.50;;
18455;SDS011;9357;49.900;8.208;2023-06-10T03:34:30;8.90;;;8.00;;
18455;SDS011;9357;49.900;8.208;2023-06-10T03:36:04;9.50;;;8.43;;
18455;SDS011;9357;49.900;8.208;2023-06-10T03:37:37;9.03;;;7.50;;
18455;SDS011;9357;49.900;8.208;2023-06-10T03:39:10;8.30;;;7.50;;
18455;SDS011;9357;49.900;8.208;2023-06-10T03:40:43;9.37;;;7.60;;
18455;SDS011;9357;49.900;8.208;2023-06-10T03:42:17;11.10;;;8.47;;
18455;SDS011;9357;49.900;8.208;2023-06-10T03:43:50;8.77;;;7.87;;
18455;SDS011;9357;49.900;8.208;2023-06-10T03:45:21;8.90;;;7.83;;
18455;SDS011;9357;49.900;8.208;2023-06-10T03:46:55;8.50;;;7.53;;
18455;SDS011;9357;49.900;8.208;2023-06-10T03:48:28;8.90;;;8.00;;
18455;SDS011;9357;49.900;8.208;2023-06-10T03:50:02;8.23;;;7.20;;
18455;SDS011;9357;49.900;8.208;2023-06-10T03:51:34;8.70;;;7.80;;
18455;SDS011;9357;49.900;8.208;2023-06-10T03:53:07;9.87;;;7.67;;
18455;SDS011;9357;49.900;8.208;2023-06-10T03:54:40;8.90;;;8.00;;
18455;SDS011;9357;49.900;8.208;2023-06-10T03:56:13;8.33;;;7.53;;
18455;SDS011;9357;49.900;8.208;2023-06-10T03:57:46;8.30;;;7.50;;
18455;SDS011;9357;49.900;8.208;2023-06-10T03:59:19;9.50;;;7.80;;
18455;SDS011;9357;49.900;8.208;2023-06-10T04:00:52;8.20;;;7.37;;
18455;SDS011;9357;49.900;8.208;2023-06-10T04:02:26;10.10;;;7.50;;
18455;SDS011;9357;49.900;8.208;2023-06-10T04:03:59;9.93;;;7.73;;
18455;SDS011;9357;49.900;8.208;2023-06-10T04:05:32;8.77;;;7.10;;
18455;SDS011;9357;49.900;8.208;2023-06-10T04:07:05;8.17;;;7.20;;
18455;SDS011;9357;49.900;8.208;2023-06-10T04:08:39;9.80;;;7.63;;
18455;SDS011;9357;49.900;8.208;2023-06-10T04:10:11;8.97;;;7.23;;
18455;SDS011;9357;49.900;8.208;2023-06-10T04:11:44;7.67;;;6.97;;
18455;SDS011;9357;49.900;8.208;2023-06-10T04:13:18;11.67;;;7.00;;
18455;SDS011;9357;49.900;8.208;2023-06-10T04:14:50;9.87;;;7.80;;
18455;SDS011;9357;49.900;8.208;2023-06-10T04:16:23;9.10;;;7.60;;
18455;SDS011;9357;49.900;8.208;2023-06-10T04:17:56;8.70;;;7.83;;
18455;SDS011;9357;49.900;8.208;2023-06-10T04:19:29;8.40;;;7.50;;
18455;SDS011;9357;49.900;8.208;2023-06-10T04:21:02;8.33;;;7.43;;
18455;SDS011;9357;49.900;8.208;2023-06-10T04:22:35;9.93;;;7.33;;
18455;SDS011;9357;49.900;8.208;2023-06-10T04:24:07;8.30;;;7.50;;
18455;SDS011;9357;49.900;8.208;2023-06-10T04:25:40;7.50;;;6.53;;
18455;SDS011;9357;49.900;8.208;2023-06-10T04:27:12;8.23;;;6.77;;
18455;SDS011;9357;49.900;8.208;2023-06-10T04:28:46;7.73;;;6.93;;
18455;SDS011;9357;49.900;8.208;2023-06-10T04:30:19;7.97;;;7.17;;
18455;SDS011;9357;49.900;8.208;2023-06-10T04:31:51;7.90;;;7.10;;
18455;SDS011;9357;49.900;8.208;2023-06-10T04:33:24;8.47;;;7.10;;
18455;SDS011;9357;49.900;8.208;2023-06-10T04:34:56;8.03;;;7.20;;
18455;SDS011;9357;49.900;8.208;2023-06-10T04:36:30;7.57;;;6.87;;
18455;SDS011;9357;49.900;8.208;2023-06-10T04:38:03;7.93;;;6.90;;
18455;SDS011;9357;49.900;8.208;2023-06-10T04:39:34;8.77;;;6.90;;
18455;SDS011;9357;49.900;8.208;2023-06-10T04:41:09;9.53;;;7.17;;
18455;SDS011;9357;49.900;8.208;2023-06-10T04:42:42;8.03;;;7.13;;
18455;SDS011;9357;49.900;8.208;2023-06-10T04:44:15;7.87;;;7.07;;
18455;SDS011;9357;49.900;8.208;2023-06-10T04:45:48;7.97;;;7.23;;
18455;SDS011;9357;49.900;8.208;2023-06-10T04:47:21;7.40;;;6.70;;
18455;SDS011;9357;49.900;8.208;2023-06-10T04:48:53;7.60;;;6.90;;
18455;SDS011;9357;49.900;8.208;2023-06-10T04:50:26;7.70;;;6.97;;
18455;SDS011;9357;49.900;8.208;2023-06-10T04:51:59;8.23;;;6.77;;
18455;SDS011;9357;49.900;8.208;2023-06-10T04:53:32;7.80;;;7.00;;
18455;SDS011;9357;49.900;8.208;2023-06-10T04:55:05;7.13;;;6.43;;
18455;SDS011;9357;49.900;8.208;2023-06-10T04:56:39;7.87;;;7.07;;
18455;SDS011;9357;49.900;8.208;2023-06-10T04:58:11;8.20;;;7.30;;
18455;SDS011;9357;49.900;8.208;2023-06-10T04:59:46;9.43;;;6.60;;
18455;SDS011;9357;49.900;8.208;2023-06-10T05:01:19;10.80;;;7.43;;
18455;SDS011;9357;49.900;8.208;2023-06-10T05:02:51;7.97;;;7.17;;
18455;SDS011;9357;49.900;8.208;2023-06-10T05:04:25;7.83;;;7.03;;
18455;SDS011;9357;49.900;8.208;2023-06-10T05:05:57;9.17;;;7.10;;
18455;SDS011;9357;49.900;8.208;2023-06-10T05:07:30;7.90;;;7.10;;
18455;SDS011;9357;49.900;8.208;2023-06-10T05:09:02;7.90;;;7.00;;
18455;SDS011;9357;49.900;8.208;2023-06-10T05:10:35;8.37;;;7.07;;
18455;SDS011;9357;49.900;8.208;2023-06-10T05:12:08;8.37;;;6.67;;
18455;SDS011;9357;49.900;8.208;2023-06-10T05:13:41;7.40;;;6.67;;
18455;SDS011;9357;49.900;8.208;2023-06-10T05:15:15;9.73;;;7.13;;
18455;SDS011;9357;49.900;8.208;2023-06-10T05:16:48;7.90;;;7.10;;
18455;SDS011;9357;49.900;8.208;2023-06-10T05:18:21;8.47;;;6.93;;
18455;SDS011;9357;49.900;8.208;2023-06-10T05:19:54;8.23;;;7.43;;
18455;SDS011;9357;49.900;8.208;2023-06-10T05:21:27;7.60;;;6.90;;
18455;SDS011;9357;49.900;8.208;2023-06-10T05:22:59;8.17;;;7.13;;
18455;SDS011;9357;49.900;8.208;2023-06-10T05:24:32;8.67;;;7.10;;
18455;SDS011;9357;49.900;8.208;2023-06-10T05:26:05;9.17;;;6.90;;
18455;SDS011;9357;49.900;8.208;2023-06-10T05:27:38;7.93;;;7.13;;
18455;SDS011;9357;49.900;8.208;2023-06-10T05:29:13;7.97;;;6.77;;
18455;SDS011;9357;49.900;8.208;2023-06-10T05:30:47;11.50;;;7.30;;
18455;SDS011;9357;49.900;8.208;2023-06-10T05:32:20;9.27;;;6.90;;
18455;SDS011;9357;49.900;8.208;2023-06-10T05:33:53;7.53;;;6.67;;
18455;SDS011;9357;49.900;8.208;2023-06-10T05:35:26;9.47;;;6.60;;
18455;SDS011;9357;49.900;8.208;2023-06-10T05:36:59;7.73;;;6.97;;
18455;SDS011;9357;49.900;8.208;2023-06-10T05:38:31;7.40;;;6.70;;
18455;SDS011;9357;49.900;8.208;2023-06-10T05:40:04;7.57;;;6.37;;
18455;SDS011;9357;49.900;8.208;2023-06-10T05:41:37;7.70;;;6.93;;
18455;SDS011;9357;49.900;8.208;2023-06-10T05:43:09;7.53;;;6.73;;
18455;SDS011;9357;49.900;8.208;2023-06-10T05:44:42;7.63;;;6.87;;
18455;SDS011;9357;49.900;8.208;2023-06-10T05:46:15;7.57;;;6.87;;
18455;SDS011;9357;49.900;8.208;2023-06-10T05:47:48;8.83;;;6.70;;
18455;SDS011;9357;49.900;8.208;2023-06-10T05:49:22;8.40;;;6.93;;
18455;SDS011;9357;49.900;8.208;2023-06-10T05:50:55;7.63;;;6.80;;
18455;SDS011;9357;49.900;8.208;2023-06-10T05:52:28;9.67;;;7.33;;
18455;SDS011;9357;49.900;8.208;2023-06-10T05:53:59;7.93;;;6.77;;
18455;SDS011;9357;49.900;8.208;2023-06-10T05:55:32;7.63;;;6.90;;
18455;SDS011;9357;49.900;8.208;2023-06-10T05:57:05;7.50;;;6.80;;
18455;SDS011;9357;49.900;8.208;2023-06-10T05:58:37;7.73;;;6.67;;
18455;SDS011;9357;49.900;8.208;2023-06-10T06:00:11;7.97;;;6.63;;
18455;SDS011;9357;49.900;8.208;2023-06-10T06:01:45;7.33;;;6.63;;
18455;SDS011;9357;49.900;8.208;2023-06-10T06:03:18;9.23;;;6.93;;
18455;SDS011;9357;49.900;8.208;2023-06-10T06:04:51;8.20;;;6.93;;
18455;SDS011;9357;49.900;8.208;2023-06-10T06:06:24;9.20;;;6.93;;
18455;SDS011;9357;49.900;8.208;2023-06-10T06:07:57;8.33;;;6.73;;
18455;SDS011;9357;49.900;8.208;2023-06-10T06:09:29;7.50;;;6.40;;
18455;SDS011;9357;49.900;8.208;2023-06-10T06:11:02;9.10;;;6.90;;
18455;SDS011;9357;49.900;8.208;2023-06-10T06:12:35;8.83;;;6.80;;
18455;SDS011;9357;49.900;8.208;2023-06-10T06:14:08;8.40;;;6.70;;
18455;SDS011;9357;49.900;8.208;2023-06-10T06:15:41;8.13;;;6.97;;
18455;SDS011;9357;49.900;8.208;2023-06-10T06:17:15;7.33;;;6.50;;
18455;SDS011;9357;49.900;8.208;2023-06-10T06:18:47;7.33;;;6.63;;
18455;SDS011;9357;49.900;8.208;2023-06-10T06:20:19;7.73;;;6.93;;
18455;SDS011;9357;49.900;8.208;2023-06-10T06:21:52;8.70;;;6.47;;
18455;SDS011;9357;49.900;8.208;2023-06-10T06:23:25;7.70;;;6.97;;
18455;SDS011;9357;49.900;8.208;2023-06-10T06:24:58;7.73;;;6.30;;
18455;SDS011;9357;49.900;8.208;2023-06-10T06:26:30;8.17;;;7.37;;
18455;SDS011;9357;49.900;8.208;2023-06-10T06:28:03;10.80;;;7.13;;
18455;SDS011;9357;49.900;8.208;2023-06-10T06:29:35;7.87;;;7.07;;
18455;SDS011;9357;49.900;8.208;2023-06-10T06:31:09;7.33;;;6.63;;
18455;SDS011;9357;49.900;8.208;2023-06-10T06:32:43;7.73;;;6.93;;
18455;SDS011;9357;49.900;8.208;2023-06-10T06:34:17;8.03;;;7.00;;
18455;SDS011;9357;49.900;8.208;2023-06-10T06:35:49;10.67;;;7.23;;
18455;SDS011;9357;49.900;8.208;2023-06-10T06:37:23;10.63;;;7.27;;
18455;SDS011;9357;49.900;8.208;2023-06-10T06:38:56;8.07;;;6.77;;
18455;SDS011;9357;49.900;8.208;2023-06-10T06:40:29;7.93;;;7.20;;
18455;SDS011;9357;49.900;8.208;2023-06-10T06:42:03;8.00;;;7.13;;
18455;SDS011;9357;49.900;8.208;2023-06-10T06:43:36;8.37;;;7.20;;
18455;SDS011;9357;49.900;8.208;2023-06-10T06:45:09;7.90;;;7.10;;
18455;SDS011;9357;49.900;8.208;2023-06-10T06:46:42;7.37;;;6.67;;
18455;SDS011;9357;49.900;8.208;2023-06-10T06:48:17;8.00;;;7.07;;
18455;SDS011;9357;49.900;8.208;2023-06-10T06:49:49;7.73;;;7.03;;
18455;SDS011;9357;49.900;8.208;2023-06-10T06:51:22;7.73;;;6.93;;
18455;SDS011;9357;49.900;8.208;2023-06-10T06:52:55;8.03;;;7.30;;
18455;SDS011;9357;49.900;8.208;2023-06-10T06:54:28;7.60;;;6.90;;
18455;SDS011;9357;49.900;8.208;2023-06-10T06:56:01;10.60;;;7.50;;
18455;SDS011;9357;49.900;8.208;2023-06-10T06:57:34;8.50;;;7.60;;
18455;SDS011;9357;49.900;8.208;2023-06-10T06:59:05;10.37;;;7.00;;
18455;SDS011;9357;49.900;8.208;2023-06-10T07:00:38;8.17;;;7.37;;
18455;SDS011;9357;49.900;8.208;2023-06-10T07:02:11;7.60;;;6.83;;
18455;SDS011;9357;49.900;8.208;2023-06-10T07:03:45;8.90;;;7.33;;
18455;SDS011;9357;49.900;8.208;2023-06-10T07:05:18;8.63;;;7.73;;
18455;SDS011;9357;49.900;8.208;2023-06-10T07:06:51;7.77;;;6.97;;
18455;SDS011;9357;49.900;8.208;2023-06-10T07:08:24;7.60;;;6.87;;
18455;SDS011;9357;49.900;8.208;2023-06-10T07:09:56;7.57;;;6.87;;
18455;SDS011;9357;49.900;8.208;2023-06-10T07:11:29;7.17;;;6.57;;
18455;SDS011;9357;49.900;8.208;2023-06-10T07:13:02;7.97;;;7.30;;
18455;SDS011;9357;49.900;8.208;2023-06-10T07:14:35;7.87;;;7.07;;
18455;SDS011;9357;49.900;8.208;2023-06-10T07:16:08;7.47;;;6.70;;
18455;SDS011;9357;49.900;8.208;2023-06-10T07:17:40;8.43;;;7.37;;
18455;SDS011;9357;49.900;8.208;2023-06-10T07:19:14;7.73;;;7.00;;
18455;SDS011;9357;49.900;8.208;2023-06-10T07:20:47;8.23;;;7.00;;
18455;SDS011;9357;49.900;8.208;2023-06-10T07:22:20;7.90;;;7.20;;
18455;SDS011;9357;49.900;8.208;2023-06-10T07:23:53;9.77;;;7.47;;
18455;SDS011;9357;49.900;8.208;2023-06-10T07:25:26;8.57;;;7.17;;
18455;SDS011;9357;49.900;8.208;2023-06-10T07:26:58;9.33;;;7.23;;
18455;SDS011;9357;49.900;8.208;2023-06-10T07:28:31;7.97;;;7.23;;
18455;SDS011;9357;49.900;8.208;2023-06-10T07:30:05;7.90;;;7.07;;
18455;SDS011;9357;49.900;8.208;2023-06-10T07:31:40;7.80;;;6.87;;
18455;SDS011;9357;49.900;8.208;2023-06-10T07:33:13;7.83;;;7.13;;
18455;SDS011;9357;49.900;8.208;2023-06-10T07:34:47;7.93;;;7.03;;
18455;SDS011;9357;49.900;8.208;2023-06-10T07:36:20;8.77;;;7.33;;
18455;SDS011;9357;49.900;8.208;2023-06-10T07:37:53;8.10;;;6.90;;
18455;SDS011;9357;49.900;8.208;2023-06-10T07:39:25;9.57;;;7.70;;
18455;SDS011;9357;49.900;8.208;2023-06-10T07:40:58;8.77;;;6.80;;
18455;SDS011;9357;49.900;8.208;2023-06-10T07:42:31;7.00;;;6.40;;
18455;SDS011;9357;49.900;8.208;2023-06-10T07:44:04;7.40;;;6.70;;
18455;SDS011;9357;49.900;8.208;2023-06-10T07:45:39;7.87;;;7.07;;
18455;SDS011;9357;49.900;8.208;2023-06-10T07:47:11;7.57;;;6.80;;
18455;SDS011;9357;49.900;8.208;2023-06-10T07:48:44;7.40;;;6.67;;
18455;SDS011;9357;49.900;8.208;2023-06-10T07:50:18;7.20;;;6.53;;
18455;SDS011;9357;49.900;8.208;2023-06-10T07:51:53;8.57;;;7.60;;
18455;SDS011;9357;49.900;8.208;2023-06-10T07:53:26;8.70;;;7.33;;
18455;SDS011;9357;49.900;8.208;2023-06-10T07:54:59;7.43;;;6.80;;
18455;SDS011;9357;49.900;8.208;2023-06-10T07:56:31;8.47;;;6.77;;
18455;SDS011;9357;49.900;8.208;2023-06-10T07:58:04;8.53;;;6.80;;
18455;SDS011;9357;49.900;8.208;2023-06-10T07:59:37;7.93;;;7.23;;
18455;SDS011;9357;49.900;8.208;2023-06-10T08:01:10;7.53;;;6.87;;
18455;SDS011;9357;49.900;8.208;2023-06-10T08:02:43;7.90;;;7.20;;
18455;SDS011;9357;49.900;8.208;2023-06-10T08:04:16;7.23;;;6.63;;
18455;SDS011;9357;49.900;8.208;2023-06-10T08:05:50;7.67;;;6.97;;
18455;SDS011;9357;49.900;8.208;2023-06-10T08:07:23;8.07;;;7.27;;
18455;SDS011;9357;49.900;8.208;2023-06-10T08:08:56;7.63;;;6.93;;
18455;SDS011;9357;49.900;8.208;2023-06-10T08:10:29;7.17;;;6.57;;
18455;SDS011;9357;49.900;8.208;2023-06-10T08:12:02;7.20;;;6.60;;
18455;SDS011;9357;49.900;8.208;2023-06-10T08:13:35;7.83;;;7.13;;
18455;SDS011;9357;49.900;8.208;2023-06-10T08:15:08;7.50;;;6.80;;
18455;SDS011;9357;49.900;8.208;2023-06-10T08:16:42;7.50;;;6.90;;
18455;SDS011;9357;49.900;8.208;2023-06-10T08:18:16;8.83;;;6.77;;
18455;SDS011;9357;49.900;8.208;2023-06-10T08:19:48;7.80;;;6.60;;
18455;SDS011;9357;49.900;8.208;2023-06-10T08:21:23;7.37;;;6.67;;
18455;SDS011;9357;49.900;8.208;2023-06-10T08:22:55;8.10;;;7.40;;
18455;SDS011;9357;49.900;8.208;2023-06-10T08:24:28;10.10;;;7.07;;
18455;SDS011;9357;49.900;8.208;2023-06-10T08:26:01;8.17;;;7.27;;
18455;SDS011;9357;49.900;8.208;2023-06-10T08:27:34;7.33;;;6.53;;
18455;SDS011;9357;49.900;8.208;2023-06-10T08:29:07;7.30;;;6.53;;
18455;SDS011;9357;49.900;8.208;2023-06-10T08:30:40;7.40;;;6.70;;
18455;SDS011;9357;49.900;8.208;2023-06-10T08:32:12;7.53;;;6.83;;
18455;SDS011;9357;49.900;8.208;2023-06-10T08:33:45;7.30;;;6.63;;
18455;SDS011;9357;49.900;8.208;2023-06-10T08:35:18;7.67;;;6.97;;
18455;SDS011;9357;49.900;8.208;2023-06-10T08:36:52;7.43;;;6.73;;
18455;SDS011;9357;49.900;8.208;2023-06-10T08:38:26;8.23;;;7.47;;
18455;SDS011;9357;49.900;8.208;2023-06-10T08:39:59;8.23;;;7.50;;
18455;SDS011;9357;49.900;8.208;2023-06-10T08:41:33;7.83;;;6.80;;
18455;SDS011;9357;49.900;8.208;2023-06-10T08:43:10;7.83;;;7.13;;
18455;SDS011;9357;49.900;8.208;2023-06-10T08:44:50;7.67;;;6.90;;
18455;SDS011;9357;49.900;8.208;2023-06-10T08:46:27;7.83;;;7.13;;
18455;SDS011;9357;49.900;8.208;2023-06-10T08:48:02;8.23;;;7.37;;
18455;SDS011;9357;49.900;8.208;2023-06-10T08:49:38;7.87;;;7.17;;
18455;SDS011;9357;49.900;8.208;2023-06-10T08:51:13;8.03;;;7.33;;
18455;SDS011;9357;49.900;8.208;2023-06-10T08:52:50;7.33;;;6.73;;
18455;SDS011;9357;49.900;8.208;2023-06-10T08:54:27;8.07;;;7.27;;
18455;SDS011;9357;49.900;8.208;2023-06-10T08:56:02;8.27;;;7.17;;
18455;SDS011;9357;49.900;8.208;2023-06-10T08:57:37;9.57;;;7.47;;
18455;SDS011;9357;49.900;8.208;2023-06-10T08:59:10;8.00;;;7.20;;
18455;SDS011;9357;49.900;8.208;2023-06-10T09:00:44;7.37;;;6.83;;
18455;SDS011;9357;49.900;8.208;2023-06-10T09:02:17;8.70;;;7.37;;
18455;SDS011;9357;49.900;8.208;2023-06-10T09:03:52;8.20;;;7.40;;
18455;SDS011;9357;49.900;8.208;2023-06-10T09:05:25;7.77;;;7.07;;
18455;SDS011;9357;49.900;8.208;2023-06-10T09:07:00;7.57;;;6.87;;
18455;SDS011;9357;49.900;8.208;2023-06-10T09:08:37;8.10;;;7.30;;
18455;SDS011;9357;49.900;8.208;2023-06-10T09:10:11;7.85;;;7.07;;
18455;SDS011;9357;49.900;8.208;2023-06-10T09:11:43;7.90;;;7.10;;
18455;SDS011;9357;49.900;8.208;2023-06-10T09:13:16;8.35;;;7.45;;
18455;SDS011;9357;49.900;8.208;2023-06-10T09:14:50;7.30;;;6.70;;
18455;SDS011;9357;49.900;8.208;2023-06-10T09:16:23;7.88;;;7.20;;
18455;SDS011;9357;49.900;8.208;2023-06-10T09:17:56;7.60;;;6.90;;
18455;SDS011;9357;49.900;8.208;2023-06-10T09:19:30;8.25;;;6.88;;
18455;SDS011;9357;49.900;8.208;2023-06-10T09:21:04;8.13;;;7.33;;
18455;SDS011;9357;49.900;8.208;2023-06-10T09:22:37;7.47;;;6.88;;
18455;SDS011;9357;49.900;8.208;2023-06-10T09:24:11;7.45;;;6.82;;
18455;SDS011;9357;49.900;8.208;2023-06-10T09:25:44;8.73;;;7.82;;
18455;SDS011;9357;49.900;8.208;2023-06-10T09:27:17;7.85;;;7.20;;
18455;SDS011;9357;49.900;8.208;2023-06-10T09:28:49;8.57;;;7.40;;